sensor_id;sensor_type;location;lat;lon;timestamp;P1;durP1;ratioP1;P2;durP2;ratioP2
71800;SDS011;59647;55.838;37.292;2023-11-22T00:01:06;6.57;;;2.57;;
71800;SDS011;59647;55.838;37.292;2023-11-22T00:03:32;5.27;;;2.70;;
71800;SDS011;59647;55.838;37.292;2023-11-22T00:05:58;7.90;;;2.80;;
71800;SDS011;59647;55.838;37.292;2023-11-22T00:08:25;7.97;;;3.63;;
71800;SDS011;59647;55.838;37.292;2023-11-22T00:10:50;8.87;;;3.77;;
71800;SDS011;59647;55.838;37.292;2023-11-22T00:13:16;5.00;;;2.27;;
71800;SDS011;59647;55.838;37.292;2023-11-22T00:15:42;9.53;;;3.30;;
71800;SDS011;59647;55.838;37.292;2023-11-22T00:18:08;8.43;;;3.47;;
71800;SDS011;59647;55.838;37.292;2023-11-22T00:20:35;8.87;;;3.83;;
71800;SDS011;59647;55.838;37.292;2023-11-22T00:23:02;9.53;;;3.33;;
71800;SDS011;59647;55.838;37.292;2023-11-22T00:25:29;7.23;;;3.27;;
71800;SDS011;59647;55.838;37.292;2023-11-22T00:27:55;5.97;;;2.93;;
71800;SDS011;59647;55.838;37.292;2023-11-22T00:30:21;7.70;;;3.53;;
71800;SDS011;59647;55.838;37.292;2023-11-22T00:32:48;8.97;;;3.67;;
71800;SDS011;59647;55.838;37.292;2023-11-22T00:35:14;8.50;;;3.37;;
71800;SDS011;59647;55.838;37.292;2023-11-22T00:37:40;8.13;;;3.50;;
71800;SDS011;59647;55.838;37.292;2023-11-22T00:40:06;8.67;;;3.13;;
71800;SDS011;59647;55.838;37.292;2023-11-22T00:42:39;11.15;;;3.00;;
71800;SDS011;59647;55.838;37.292;2023-11-22T00:45:08;7.50;;;3.37;;
71800;SDS011;59647;55.838;37.292;2023-11-22T00:47:37;8.60;;;3.20;;
71800;SDS011;59647;55.838;37.292;2023-11-22T00:50:04;6.73;;;3.10;;
71800;SDS011;59647;55.838;37.292;2023-11-22T00:52:31;7.73;;;3.40;;
71800;SDS011;59647;55.838;37.292;2023-11-22T00:54:57;6.57;;;3.27;;
71800;SDS011;59647;55.838;37.292;2023-11-22T00:57:24;11.87;;;4.30;;
71800;SDS011;59647;55.838;37.292;2023-11-22T00:59:53;11.23;;;3.73;;
71800;SDS011;59647;55.838;37.292;2023-11-22T01:02:19;8.90;;;3.67;;
71800;SDS011;59647;55.838;37.292;2023-11-22T01:04:46;7.30;;;3.00;;
71800;SDS011;59647;55.838;37.292;2023-11-22T01:07:13;10.77;;;4.53;;
71800;SDS011;59647;55.838;37.292;2023-11-22T01:09:39;10.07;;;3.70;;
71800;SDS011;59647;55.838;37.292;2023-11-22T01:12:05;10.30;;;4.23;;
71800;SDS011;59647;55.838;37.292;2023-11-22T01:14:35;9.30;;;3.63;;
71800;SDS011;59647;55.838;37.292;2023-11-22T01:17:00;14.07;;;3.87;;
71800;SDS011;59647;55.838;37.292;2023-11-22T01:19:26;12.90;;;4.87;;
71800;SDS011;59647;55.838;37.292;2023-11-22T01:21:52;15.07;;;4.20;;
71800;SDS011;59647;55.838;37.292;2023-11-22T01:24:18;10.97;;;4.20;;
71800;SDS011;59647;55.838;37.292;2023-11-22T01:26:45;9.07;;;4.53;;
71800;SDS011;59647;55.838;37.292;2023-11-22T01:29:11;10.17;;;3.77;;
71800;SDS011;59647;55.838;37.292;2023-11-22T01:31:37;7.90;;;3.63;;
71800;SDS011;59647;55.838;37.292;2023-11-22T01:34:04;12.77;;;4.43;;
71800;SDS011;59647;55.838;37.292;2023-11-22T01:36:31;10.33;;;4.10;;
71800;SDS011;59647;55.838;37.292;2023-11-22T01:38:57;7.97;;;3.27;;
71800;SDS011;59647;55.838;37.292;2023-11-22T01:41:23;9.50;;;3.30;;
71800;SDS011;59647;55.838;37.292;2023-11-22T01:43:50;8.43;;;3.90;;
71800;SDS011;59647;55.838;37.292;2023-11-22T01:46:26;12.87;;;3.63;;
71800;SDS011;59647;55.838;37.292;2023-11-22T01:48:53;10.60;;;4.27;;
71800;SDS011;59647;55.838;37.292;2023-11-22T01:51:21;7.90;;;3.87;;
71800;SDS011;59647;55.838;37.292;2023-11-22T01:53:49;5.10;;;2.93;;
71800;SDS011;59647;55.838;37.292;2023-11-22T01:56:22;7.80;;;3.50;;
71800;SDS011;59647;55.838;37.292;2023-11-22T01:58:49;3.37;;;1.67;;
71800;SDS011;59647;55.838;37.292;2023-11-22T02:01:16;9.53;;;3.00;;
71800;SDS011;59647;55.838;37.292;2023-11-22T02:03:42;7.47;;;3.40;;
71800;SDS011;59647;55.838;37.292;2023-11-22T02:06:11;5.50;;;2.83;;
71800;SDS011;59647;55.838;37.292;2023-11-22T02:08:37;5.27;;;2.77;;
71800;SDS011;59647;55.838;37.292;2023-11-22T02:11:05;7.67;;;3.57;;
71800;SDS011;59647;55.838;37.292;2023-11-22T02:13:32;10.93;;;3.37;;
71800;SDS011;59647;55.838;37.292;2023-11-22T02:16:01;11.20;;;3.33;;
71800;SDS011;59647;55.838;37.292;2023-11-22T02:18:29;8.90;;;3.87;;
71800;SDS011;59647;55.838;37.292;2023-11-22T02:20:56;5.27;;;2.33;;
71800;SDS011;59647;55.838;37.292;2023-11-22T02:23:23;7.97;;;3.53;;
71800;SDS011;59647;55.838;37.292;2023-11-22T02:25:50;7.57;;;2.97;;
71800;SDS011;59647;55.838;37.292;2023-11-22T02:28:16;6.13;;;3.10;;
71800;SDS011;59647;55.838;37.292;2023-11-22T02:30:42;5.33;;;2.33;;
71800;SDS011;59647;55.838;37.292;2023-11-22T02:33:09;2.27;;;1.23;;
71800;SDS011;59647;55.838;37.292;2023-11-22T02:35:35;6.13;;;3.10;;
71800;SDS011;59647;55.838;37.292;2023-11-22T02:38:01;7.20;;;2.80;;
71800;SDS011;59647;55.838;37.292;2023-11-22T02:40:27;6.63;;;2.77;;
71800;SDS011;59647;55.838;37.292;2023-11-22T02:42:54;4.07;;;2.20;;
71800;SDS011;59647;55.838;37.292;2023-11-22T02:45:25;3.90;;;1.70;;
71800;SDS011;59647;55.838;37.292;2023-11-22T02:47:52;5.37;;;1.93;;
71800;SDS011;59647;55.838;37.292;2023-11-22T02:50:18;7.43;;;3.03;;
71800;SDS011;59647;55.838;37.292;2023-11-22T02:52:44;10.27;;;1.77;;
71800;SDS011;59647;55.838;37.292;2023-11-22T02:55:10;6.03;;;2.97;;
71800;SDS011;59647;55.838;37.292;2023-11-22T02:57:37;5.20;;;2.77;;
71800;SDS011;59647;55.838;37.292;2023-11-22T03:00:05;5.70;;;2.60;;
71800;SDS011;59647;55.838;37.292;2023-11-22T03:02:35;7.97;;;3.20;;
71800;SDS011;59647;55.838;37.292;2023-11-22T03:05:02;3.47;;;1.33;;
71800;SDS011;59647;55.838;37.292;2023-11-22T03:07:30;4.30;;;1.80;;
71800;SDS011;59647;55.838;37.292;2023-11-22T03:09:57;4.47;;;2.20;;
71800;SDS011;59647;55.838;37.292;2023-11-22T03:12:26;8.47;;;2.17;;
71800;SDS011;59647;55.838;37.292;2023-11-22T03:14:52;5.63;;;2.20;;
71800;SDS011;59647;55.838;37.292;2023-11-22T03:17:25;8.20;;;2.93;;
71800;SDS011;59647;55.838;37.292;2023-11-22T03:19:54;6.23;;;2.90;;
71800;SDS011;59647;55.838;37.292;2023-11-22T03:22:27;7.40;;;3.03;;
71800;SDS011;59647;55.838;37.292;2023-11-22T03:24:56;8.17;;;2.90;;
71800;SDS011;59647;55.838;37.292;2023-11-22T03:27:24;9.13;;;3.03;;
71800;SDS011;59647;55.838;37.292;2023-11-22T03:29:52;7.90;;;2.30;;
71800;SDS011;59647;55.838;37.292;2023-11-22T03:32:18;7.90;;;4.00;;
71800;SDS011;59647;55.838;37.292;2023-11-22T03:34:44;8.13;;;3.17;;
71800;SDS011;59647;55.838;37.292;2023-11-22T03:37:10;8.57;;;3.07;;
71800;SDS011;59647;55.838;37.292;2023-11-22T03:39:36;6.13;;;2.00;;
71800;SDS011;59647;55.838;37.292;2023-11-22T03:42:03;13.30;;;4.80;;
71800;SDS011;59647;55.838;37.292;2023-11-22T03:44:29;6.63;;;2.60;;
71800;SDS011;59647;55.838;37.292;2023-11-22T03:46:57;6.90;;;3.20;;
71800;SDS011;59647;55.838;37.292;2023-11-22T03:49:23;7.60;;;3.07;;
71800;SDS011;59647;55.838;37.292;2023-11-22T03:51:49;7.53;;;3.20;;
71800;SDS011;59647;55.838;37.292;2023-11-22T03:54:14;11.87;;;4.00;;
71800;SDS011;59647;55.838;37.292;2023-11-22T03:56:40;11.77;;;4.03;;
71800;SDS011;59647;55.838;37.292;2023-11-22T03:59:07;6.87;;;2.80;;
71800;SDS011;59647;55.838;37.292;2023-11-22T04:01:32;13.33;;;2.97;;
71800;SDS011;59647;55.838;37.292;2023-11-22T04:03:58;10.27;;;4.07;;
71800;SDS011;59647;55.838;37.292;2023-11-22T04:06:24;9.13;;;3.90;;
71800;SDS011;59647;55.838;37.292;2023-11-22T04:08:50;10.80;;;4.27;;
71800;SDS011;59647;55.838;37.292;2023-11-22T04:11:18;10.67;;;4.83;;
71800;SDS011;59647;55.838;37.292;2023-11-22T04:13:44;7.50;;;2.83;;
71800;SDS011;59647;55.838;37.292;2023-11-22T04:16:10;10.97;;;4.73;;
71800;SDS011;59647;55.838;37.292;2023-11-22T04:18:40;13.13;;;4.73;;
71800;SDS011;59647;55.838;37.292;2023-11-22T04:21:07;8.83;;;3.70;;
71800;SDS011;59647;55.838;37.292;2023-11-22T04:23:34;8.87;;;3.90;;
71800;SDS011;59647;55.838;37.292;2023-11-22T04:26:02;13.30;;;3.47;;
71800;SDS011;59647;55.838;37.292;2023-11-22T04:28:29;10.10;;;3.03;;
71800;SDS011;59647;55.838;37.292;2023-11-22T04:30:56;10.73;;;3.80;;
71800;SDS011;59647;55.838;37.292;2023-11-22T04:33:23;8.37;;;2.57;;
71800;SDS011;59647;55.838;37.292;2023-11-22T04:35:49;7.07;;;2.63;;
71800;SDS011;59647;55.838;37.292;2023-11-22T04:38:16;8.30;;;3.37;;
71800;SDS011;59647;55.838;37.292;2023-11-22T04:40:43;8.47;;;4.03;;
71800;SDS011;59647;55.838;37.292;2023-11-22T04:43:10;8.07;;;3.77;;
71800;SDS011;59647;55.838;37.292;2023-11-22T04:45:36;10.63;;;3.43;;
71800;SDS011;59647;55.838;37.292;2023-11-22T04:48:03;5.77;;;2.40;;
71800;SDS011;59647;55.838;37.292;2023-11-22T04:50:29;7.47;;;3.20;;
71800;SDS011;59647;55.838;37.292;2023-11-22T04:52:57;10.17;;;5.10;;
71800;SDS011;59647;55.838;37.292;2023-11-22T04:55:23;9.00;;;2.70;;
71800;SDS011;59647;55.838;37.292;2023-11-22T04:57:49;11.07;;;3.33;;
71800;SDS011;59647;55.838;37.292;2023-11-22T05:00:15;10.23;;;4.73;;
71800;SDS011;59647;55.838;37.292;2023-11-22T05:02:42;7.97;;;3.37;;
71800;SDS011;59647;55.838;37.292;2023-11-22T05:05:08;14.17;;;4.53;;
71800;SDS011;59647;55.838;37.292;2023-11-22T05:07:38;11.73;;;4.53;;
71800;SDS011;59647;55.838;37.292;2023-11-22T05:10:04;9.17;;;3.50;;
71800;SDS011;59647;55.838;37.292;2023-11-22T05:12:31;15.20;;;4.63;;
71800;SDS011;59647;55.838;37.292;2023-11-22T05:14:57;8.33;;;2.70;;
71800;SDS011;59647;55.838;37.292;2023-11-22T05:17:23;9.37;;;3.60;;
71800;SDS011;59647;55.838;37.292;2023-11-22T05:19:49;12.70;;;4.00;;
71800;SDS011;59647;55.838;37.292;2023-11-22T05:22:16;13.07;;;4.10;;
71800;SDS011;59647;55.838;37.292;2023-11-22T05:24:42;14.80;;;6.33;;
71800;SDS011;59647;55.838;37.292;2023-11-22T05:27:08;6.73;;;2.80;;
71800;SDS011;59647;55.838;37.292;2023-11-22T05:29:34;19.30;;;5.07;;
71800;SDS011;59647;55.838;37.292;2023-11-22T05:32:01;11.93;;;5.53;;
71800;SDS011;59647;55.838;37.292;2023-11-22T05:34:31;9.27;;;3.80;;
71800;SDS011;59647;55.838;37.292;2023-11-22T05:36:57;9.17;;;4.20;;
71800;SDS011;59647;55.838;37.292;2023-11-22T05:39:23;17.27;;;5.93;;
71800;SDS011;59647;55.838;37.292;2023-11-22T05:41:50;6.67;;;3.13;;
71800;SDS011;59647;55.838;37.292;2023-11-22T05:44:17;13.60;;;5.63;;
71800;SDS011;59647;55.838;37.292;2023-11-22T05:46:43;12.30;;;3.60;;
71800;SDS011;59647;55.838;37.292;2023-11-22T05:49:09;7.03;;;2.87;;
71800;SDS011;59647;55.838;37.292;2023-11-22T05:51:36;3.73;;;1.57;;
71800;SDS011;59647;55.838;37.292;2023-11-22T05:54:03;3.93;;;1.73;;
71800;SDS011;59647;55.838;37.292;2023-11-22T05:56:29;4.90;;;1.90;;
71800;SDS011;59647;55.838;37.292;2023-11-22T05:58:56;6.23;;;1.97;;
71800;SDS011;59647;55.838;37.292;2023-11-22T06:01:22;4.87;;;2.07;;
71800;SDS011;59647;55.838;37.292;2023-11-22T06:03:49;3.53;;;1.97;;
71800;SDS011;59647;55.838;37.292;2023-11-22T06:06:14;2.17;;;1.07;;
71800;SDS011;59647;55.838;37.292;2023-11-22T06:08:41;2.87;;;0.90;;
71800;SDS011;59647;55.838;37.292;2023-11-22T06:11:06;2.20;;;1.10;;
71800;SDS011;59647;55.838;37.292;2023-11-22T06:13:33;1.67;;;1.00;;
71800;SDS011;59647;55.838;37.292;2023-11-22T06:15:59;1.60;;;1.03;;
71800;SDS011;59647;55.838;37.292;2023-11-22T06:18:24;1.40;;;0.93;;
71800;SDS011;59647;55.838;37.292;2023-11-22T06:20:56;0.80;;;0.50;;
71800;SDS011;59647;55.838;37.292;2023-11-22T06:23:22;1.70;;;0.90;;
71800;SDS011;59647;55.838;37.292;2023-11-22T06:25:48;3.57;;;1.50;;
71800;SDS011;59647;55.838;37.292;2023-11-22T06:28:15;1.80;;;0.90;;
71800;SDS011;59647;55.838;37.292;2023-11-22T06:30:41;2.07;;;0.70;;
71800;SDS011;59647;55.838;37.292;2023-11-22T06:33:07;3.90;;;1.17;;
71800;SDS011;59647;55.838;37.292;2023-11-22T06:35:34;1.67;;;0.83;;
71800;SDS011;59647;55.838;37.292;2023-11-22T06:38:01;2.67;;;1.20;;
71800;SDS011;59647;55.838;37.292;2023-11-22T06:40:27;1.60;;;0.80;;
71800;SDS011;59647;55.838;37.292;2023-11-22T06:42:55;2.60;;;1.40;;
71800;SDS011;59647;55.838;37.292;2023-11-22T06:45:21;2.17;;;1.13;;
71800;SDS011;59647;55.838;37.292;2023-11-22T06:47:47;1.43;;;1.03;;
71800;SDS011;59647;55.838;37.292;2023-11-22T06:50:15;3.27;;;1.70;;
71800;SDS011;59647;55.838;37.292;2023-11-22T06:52:42;3.23;;;1.03;;
71800;SDS011;59647;55.838;37.292;2023-11-22T06:55:09;0.90;;;0.50;;
71800;SDS011;59647;55.838;37.292;2023-11-22T06:57:36;0.60;;;0.60;;
71800;SDS011;59647;55.838;37.292;2023-11-22T07:00:06;2.80;;;1.30;;
71800;SDS011;59647;55.838;37.292;2023-11-22T07:02:35;2.83;;;1.37;;
71800;SDS011;59647;55.838;37.292;2023-11-22T07:05:02;2.93;;;1.00;;
71800;SDS011;59647;55.838;37.292;2023-11-22T07:07:35;4.05;;;1.10;;
71800;SDS011;59647;55.838;37.292;2023-11-22T07:10:02;2.80;;;0.93;;
71800;SDS011;59647;55.838;37.292;2023-11-22T07:12:32;4.77;;;1.97;;
71800;SDS011;59647;55.838;37.292;2023-11-22T07:15:00;2.43;;;1.50;;
71800;SDS011;59647;55.838;37.292;2023-11-22T07:17:31;2.87;;;1.27;;
71800;SDS011;59647;55.838;37.292;2023-11-22T07:19:59;2.70;;;1.47;;
71800;SDS011;59647;55.838;37.292;2023-11-22T07:22:29;9.33;;;1.73;;
71800;SDS011;59647;55.838;37.292;2023-11-22T07:24:56;5.33;;;1.40;;
71800;SDS011;59647;55.838;37.292;2023-11-22T07:27:28;5.33;;;1.53;;
71800;SDS011;59647;55.838;37.292;2023-11-22T07:29:54;3.10;;;1.50;;
71800;SDS011;59647;55.838;37.292;2023-11-22T07:32:20;6.47;;;2.33;;
71800;SDS011;59647;55.838;37.292;2023-11-22T07:34:46;2.43;;;1.23;;
71800;SDS011;59647;55.838;37.292;2023-11-22T07:37:13;2.70;;;1.50;;
71800;SDS011;59647;55.838;37.292;2023-11-22T07:39:40;6.73;;;2.00;;
71800;SDS011;59647;55.838;37.292;2023-11-22T07:42:08;5.67;;;2.27;;
71800;SDS011;59647;55.838;37.292;2023-11-22T07:44:35;5.00;;;2.30;;
71800;SDS011;59647;55.838;37.292;2023-11-22T07:47:04;5.43;;;2.40;;
71800;SDS011;59647;55.838;37.292;2023-11-22T07:49:34;4.57;;;2.20;;
71800;SDS011;59647;55.838;37.292;2023-11-22T07:52:05;13.60;;;3.40;;
71800;SDS011;59647;55.838;37.292;2023-11-22T07:54:32;4.80;;;2.27;;
71800;SDS011;59647;55.838;37.292;2023-11-22T07:57:01;6.67;;;2.73;;
71800;SDS011;59647;55.838;37.292;2023-11-22T07:59:27;4.67;;;2.20;;
71800;SDS011;59647;55.838;37.292;2023-11-22T08:01:53;5.67;;;2.97;;
71800;SDS011;59647;55.838;37.292;2023-11-22T08:04:20;8.17;;;2.03;;
71800;SDS011;59647;55.838;37.292;2023-11-22T08:06:47;4.20;;;1.87;;
71800;SDS011;59647;55.838;37.292;2023-11-22T08:09:14;5.03;;;2.33;;
71800;SDS011;59647;55.838;37.292;2023-11-22T08:11:42;2.70;;;1.40;;
71800;SDS011;59647;55.838;37.292;2023-11-22T08:14:08;3.63;;;1.27;;
71800;SDS011;59647;55.838;37.292;2023-11-22T08:16:34;5.00;;;1.70;;
71800;SDS011;59647;55.838;37.292;2023-11-22T08:19:04;2.80;;;1.23;;
71800;SDS011;59647;55.838;37.292;2023-11-22T08:21:31;3.97;;;1.67;;
71800;SDS011;59647;55.838;37.292;2023-11-22T08:23:58;3.90;;;1.67;;
71800;SDS011;59647;55.838;37.292;2023-11-22T08:26:25;3.37;;;1.67;;
71800;SDS011;59647;55.838;37.292;2023-11-22T08:28:53;3.30;;;1.37;;
71800;SDS011;59647;55.838;37.292;2023-11-22T08:31:21;3.90;;;1.80;;
71800;SDS011;59647;55.838;37.292;2023-11-22T08:33:47;3.00;;;1.30;;
71800;SDS011;59647;55.838;37.292;2023-11-22T08:36:13;2.90;;;1.43;;
71800;SDS011;59647;55.838;37.292;2023-11-22T08:38:39;4.20;;;1.87;;
71800;SDS011;59647;55.838;37.292;2023-11-22T08:41:07;4.40;;;2.00;;
71800;SDS011;59647;55.838;37.292;2023-11-22T08:43:34;3.27;;;1.53;;
71800;SDS011;59647;55.838;37.292;2023-11-22T08:46:01;5.60;;;1.77;;
71800;SDS011;59647;55.838;37.292;2023-11-22T08:48:30;5.87;;;1.47;;
71800;SDS011;59647;55.838;37.292;2023-11-22T08:50:57;4.53;;;1.87;;
71800;SDS011;59647;55.838;37.292;2023-11-22T08:53:24;3.90;;;1.40;;
71800;SDS011;59647;55.838;37.292;2023-11-22T08:55:51;3.47;;;1.77;;
71800;SDS011;59647;55.838;37.292;2023-11-22T08:58:20;10.00;;;3.10;;
71800;SDS011;59647;55.838;37.292;2023-11-22T09:00:47;7.70;;;3.57;;
71800;SDS011;59647;55.838;37.292;2023-11-22T09:03:14;13.30;;;5.87;;
71800;SDS011;59647;55.838;37.292;2023-11-22T09:05:40;7.43;;;2.27;;
71800;SDS011;59647;55.838;37.292;2023-11-22T09:08:06;4.57;;;2.03;;
71800;SDS011;59647;55.838;37.292;2023-11-22T09:10:35;3.23;;;1.47;;
71800;SDS011;59647;55.838;37.292;2023-11-22T09:13:00;4.03;;;1.93;;
71800;SDS011;59647;55.838;37.292;2023-11-22T09:15:26;8.07;;;1.40;;
71800;SDS011;59647;55.838;37.292;2023-11-22T09:17:54;2.30;;;1.63;;
71800;SDS011;59647;55.838;37.292;2023-11-22T09:20:20;3.87;;;1.33;;
71800;SDS011;59647;55.838;37.292;2023-11-22T09:22:53;2.10;;;0.90;;
71800;SDS011;59647;55.838;37.292;2023-11-22T09:25:23;3.60;;;1.30;;
71800;SDS011;59647;55.838;37.292;2023-11-22T09:27:51;2.07;;;0.90;;
71800;SDS011;59647;55.838;37.292;2023-11-22T09:30:21;3.17;;;1.40;;
71800;SDS011;59647;55.838;37.292;2023-11-22T09:33:05;4.27;;;1.63;;
71800;SDS011;59647;55.838;37.292;2023-11-22T09:35:32;3.03;;;1.10;;
71800;SDS011;59647;55.838;37.292;2023-11-22T09:37:59;1.90;;;1.03;;
71800;SDS011;59647;55.838;37.292;2023-11-22T09:40:26;6.93;;;2.00;;
71800;SDS011;59647;55.838;37.292;2023-11-22T09:42:58;3.97;;;1.40;;
71800;SDS011;59647;55.838;37.292;2023-11-22T09:45:26;3.53;;;1.90;;
71800;SDS011;59647;55.838;37.292;2023-11-22T09:47:52;3.63;;;1.70;;
71800;SDS011;59647;55.838;37.292;2023-11-22T09:50:34;4.73;;;1.57;;
71800;SDS011;59647;55.838;37.292;2023-11-22T09:53:34;3.67;;;1.30;;
71800;SDS011;59647;55.838;37.292;2023-11-22T09:56:03;3.97;;;1.80;;
71800;SDS011;59647;55.838;37.292;2023-11-22T09:58:32;6.83;;;1.60;;
71800;SDS011;59647;55.838;37.292;2023-11-22T10:01:00;5.63;;;1.77;;
71800;SDS011;59647;55.838;37.292;2023-11-22T10:03:27;5.67;;;1.80;;
71800;SDS011;59647;55.838;37.292;2023-11-22T10:05:56;5.10;;;1.80;;
71800;SDS011;59647;55.838;37.292;2023-11-22T10:08:25;4.87;;;1.53;;
71800;SDS011;59647;55.838;37.292;2023-11-22T10:10:53;2.87;;;1.23;;
71800;SDS011;59647;55.838;37.292;2023-11-22T10:13:20;3.17;;;1.30;;
71800;SDS011;59647;55.838;37.292;2023-11-22T10:15:49;3.37;;;1.47;;
71800;SDS011;59647;55.838;37.292;2023-11-22T10:18:16;3.10;;;1.20;;
71800;SDS011;59647;55.838;37.292;2023-11-22T10:20:46;4.17;;;1.27;;
71800;SDS011;59647;55.838;37.292;2023-11-22T10:23:15;4.53;;;1.23;;
71800;SDS011;59647;55.838;37.292;2023-11-22T10:25:51;0.90;;;0.50;;
71800;SDS011;59647;55.838;37.292;2023-11-22T10:28:18;3.53;;;1.10;;
71800;SDS011;59647;55.838;37.292;2023-11-22T10:30:46;3.30;;;1.73;;
71800;SDS011;59647;55.838;37.292;2023-11-22T10:33:14;2.80;;;1.20;;
71800;SDS011;59647;55.838;37.292;2023-11-22T10:35:44;15.20;;;5.50;;
71800;SDS011;59647;55.838;37.292;2023-11-22T10:38:14;5.40;;;1.30;;
71800;SDS011;59647;55.838;37.292;2023-11-22T10:40:41;7.30;;;2.73;;
71800;SDS011;59647;55.838;37.292;2023-11-22T10:43:11;3.77;;;1.33;;
71800;SDS011;59647;55.838;37.292;2023-11-22T10:45:37;3.43;;;1.70;;
71800;SDS011;59647;55.838;37.292;2023-11-22T10:48:05;3.87;;;1.33;;
71800;SDS011;59647;55.838;37.292;2023-11-22T10:50:35;3.63;;;1.57;;
71800;SDS011;59647;55.838;37.292;2023-11-22T10:53:04;5.67;;;1.93;;
71800;SDS011;59647;55.838;37.292;2023-11-22T10:55:33;2.67;;;1.47;;
71800;SDS011;59647;55.838;37.292;2023-11-22T10:58:03;7.60;;;1.87;;
71800;SDS011;59647;55.838;37.292;2023-11-22T11:00:31;4.53;;;1.90;;
71800;SDS011;59647;55.838;37.292;2023-11-22T11:03:03;4.67;;;1.23;;
71800;SDS011;59647;55.838;37.292;2023-11-22T11:05:36;3.87;;;1.40;;
71800;SDS011;59647;55.838;37.292;2023-11-22T11:08:12;4.17;;;1.93;;
71800;SDS011;59647;55.838;37.292;2023-11-22T11:10:42;3.47;;;1.53;;
71800;SDS011;59647;55.838;37.292;2023-11-22T11:13:09;3.37;;;1.50;;
71800;SDS011;59647;55.838;37.292;2023-11-22T11:15:37;13.90;;;2.87;;
71800;SDS011;59647;55.838;37.292;2023-11-22T11:18:04;8.20;;;3.63;;
71800;SDS011;59647;55.838;37.292;2023-11-22T11:20:32;8.53;;;3.17;;
71800;SDS011;59647;55.838;37.292;2023-11-22T11:23:12;6.90;;;2.30;;
71800;SDS011;59647;55.838;37.292;2023-11-22T11:25:41;7.50;;;2.33;;
71800;SDS011;59647;55.838;37.292;2023-11-22T11:28:10;6.70;;;2.13;;
71800;SDS011;59647;55.838;37.292;2023-11-22T11:30:43;5.33;;;1.60;;
71800;SDS011;59647;55.838;37.292;2023-11-22T11:33:11;6.37;;;2.50;;
71800;SDS011;59647;55.838;37.292;2023-11-22T11:35:50;7.50;;;2.10;;
71800;SDS011;59647;55.838;37.292;2023-11-22T11:38:16;5.63;;;2.10;;
71800;SDS011;59647;55.838;37.292;2023-11-22T11:40:49;8.17;;;2.53;;
71800;SDS011;59647;55.838;37.292;2023-11-22T11:43:20;6.40;;;2.67;;
71800;SDS011;59647;55.838;37.292;2023-11-22T11:45:47;4.80;;;2.00;;
71800;SDS011;59647;55.838;37.292;2023-11-22T11:48:13;9.13;;;3.47;;
71800;SDS011;59647;55.838;37.292;2023-11-22T11:50:42;4.77;;;2.57;;
71800;SDS011;59647;55.838;37.292;2023-11-22T11:53:09;6.10;;;2.43;;
71800;SDS011;59647;55.838;37.292;2023-11-22T11:55:38;10.23;;;2.30;;
71800;SDS011;59647;55.838;37.292;2023-11-22T11:58:05;6.57;;;2.67;;
71800;SDS011;59647;55.838;37.292;2023-11-22T12:00:38;5.30;;;2.10;;
71800;SDS011;59647;55.838;37.292;2023-11-22T12:03:07;4.27;;;2.47;;
71800;SDS011;59647;55.838;37.292;2023-11-22T12:05:37;7.00;;;2.60;;
71800;SDS011;59647;55.838;37.292;2023-11-22T12:08:04;6.77;;;2.70;;
71800;SDS011;59647;55.838;37.292;2023-11-22T12:10:30;4.70;;;2.20;;
71800;SDS011;59647;55.838;37.292;2023-11-22T12:12:57;4.40;;;1.57;;
71800;SDS011;59647;55.838;37.292;2023-11-22T12:15:25;5.67;;;2.50;;
71800;SDS011;59647;55.838;37.292;2023-11-22T12:17:51;7.03;;;2.70;;
71800;SDS011;59647;55.838;37.292;2023-11-22T12:20:20;7.33;;;2.50;;
71800;SDS011;59647;55.838;37.292;2023-11-22T12:22:48;11.03;;;3.57;;
71800;SDS011;59647;55.838;37.292;2023-11-22T12:25:15;11.03;;;3.80;;
71800;SDS011;59647;55.838;37.292;2023-11-22T12:27:43;6.93;;;2.77;;
71800;SDS011;59647;55.838;37.292;2023-11-22T12:30:30;7.23;;;2.37;;
71800;SDS011;59647;55.838;37.292;2023-11-22T12:33:04;6.73;;;3.30;;
71800;SDS011;59647;55.838;37.292;2023-11-22T12:35:31;8.20;;;3.43;;
71800;SDS011;59647;55.838;37.292;2023-11-22T12:37:59;6.00;;;2.73;;
71800;SDS011;59647;55.838;37.292;2023-11-22T12:40:29;8.67;;;4.07;;
71800;SDS011;59647;55.838;37.292;2023-11-22T12:43:00;7.55;;;2.97;;
71800;SDS011;59647;55.838;37.292;2023-11-22T12:45:27;6.70;;;3.43;;
71800;SDS011;59647;55.838;37.292;2023-11-22T12:47:55;8.63;;;2.83;;
71800;SDS011;59647;55.838;37.292;2023-11-22T12:50:37;6.83;;;2.27;;
71800;SDS011;59647;55.838;37.292;2023-11-22T12:53:14;6.13;;;2.80;;
71800;SDS011;59647;55.838;37.292;2023-11-22T12:55:42;8.37;;;2.90;;
71800;SDS011;59647;55.838;37.292;2023-11-22T12:58:09;5.63;;;2.07;;
71800;SDS011;59647;55.838;37.292;2023-11-22T13:00:45;7.77;;;3.97;;
71800;SDS011;59647;55.838;37.292;2023-11-22T13:03:17;6.73;;;1.90;;
71800;SDS011;59647;55.838;37.292;2023-11-22T13:05:47;11.83;;;3.03;;
71800;SDS011;59647;55.838;37.292;2023-11-22T13:08:13;7.77;;;2.53;;
71800;SDS011;59647;55.838;37.292;2023-11-22T13:10:43;6.53;;;3.00;;
71800;SDS011;59647;55.838;37.292;2023-11-22T13:13:10;6.70;;;2.80;;
71800;SDS011;59647;55.838;37.292;2023-11-22T13:15:36;5.87;;;2.33;;
71800;SDS011;59647;55.838;37.292;2023-11-22T13:18:02;7.13;;;2.70;;
71800;SDS011;59647;55.838;37.292;2023-11-22T13:20:32;5.87;;;2.23;;
71800;SDS011;59647;55.838;37.292;2023-11-22T13:22:58;10.00;;;2.20;;
71800;SDS011;59647;55.838;37.292;2023-11-22T13:25:44;9.60;;;2.50;;
71800;SDS011;59647;55.838;37.292;2023-11-22T13:29:02;8.07;;;1.83;;
71800;SDS011;59647;55.838;37.292;2023-11-22T13:31:27;6.03;;;3.07;;
71800;SDS011;59647;55.838;37.292;2023-11-22T13:33:53;9.10;;;3.90;;
71800;SDS011;59647;55.838;37.292;2023-11-22T13:36:20;8.57;;;3.00;;
71800;SDS011;59647;55.838;37.292;2023-11-22T13:38:46;8.47;;;3.70;;
71800;SDS011;59647;55.838;37.292;2023-11-22T13:41:12;10.17;;;3.63;;
71800;SDS011;59647;55.838;37.292;2023-11-22T13:43:37;9.97;;;3.17;;
71800;SDS011;59647;55.838;37.292;2023-11-22T13:46:04;6.97;;;3.23;;
71800;SDS011;59647;55.838;37.292;2023-11-22T13:48:30;5.60;;;3.17;;
71800;SDS011;59647;55.838;37.292;2023-11-22T13:50:57;9.57;;;2.97;;
71800;SDS011;59647;55.838;37.292;2023-11-22T13:53:25;9.07;;;2.73;;
71800;SDS011;59647;55.838;37.292;2023-11-22T13:55:53;9.80;;;3.53;;
71800;SDS011;59647;55.838;37.292;2023-11-22T13:58:20;5.97;;;2.83;;
71800;SDS011;59647;55.838;37.292;2023-11-22T14:00:46;5.87;;;2.97;;
71800;SDS011;59647;55.838;37.292;2023-11-22T14:03:13;6.17;;;3.47;;
71800;SDS011;59647;55.838;37.292;2023-11-22T14:05:39;8.23;;;4.10;;
71800;SDS011;59647;55.838;37.292;2023-11-22T14:08:05;10.37;;;3.80;;
71800;SDS011;59647;55.838;37.292;2023-11-22T14:10:34;10.03;;;3.67;;
71800;SDS011;59647;55.838;37.292;2023-11-22T14:13:00;11.60;;;4.20;;
71800;SDS011;59647;55.838;37.292;2023-11-22T14:15:28;8.27;;;3.27;;
71800;SDS011;59647;55.838;37.292;2023-11-22T14:17:54;9.43;;;3.33;;
71800;SDS011;59647;55.838;37.292;2023-11-22T14:20:20;11.57;;;4.50;;
71800;SDS011;59647;55.838;37.292;2023-11-22T14:22:47;8.80;;;2.27;;
71800;SDS011;59647;55.838;37.292;2023-11-22T14:25:13;10.67;;;3.53;;
71800;SDS011;59647;55.838;37.292;2023-11-22T14:27:42;10.27;;;2.90;;
71800;SDS011;59647;55.838;37.292;2023-11-22T14:30:10;5.33;;;2.17;;
71800;SDS011;59647;55.838;37.292;2023-11-22T14:32:39;6.97;;;3.53;;
71800;SDS011;59647;55.838;37.292;2023-11-22T14:35:08;9.70;;;2.90;;
71800;SDS011;59647;55.838;37.292;2023-11-22T14:37:36;16.00;;;3.53;;